createdAt,value
2019-06-18T00:01:07.177Z,12.00
2019-06-18T00:04:05.897Z,11.30
2019-06-18T00:06:44.750Z,11.60
2019-06-18T00:09:13.124Z,10.77
2019-06-18T00:11:45.726Z,11.43
2019-06-18T00:14:14.093Z,11.32
2019-06-18T00:16:46.454Z,11.07
2019-06-18T00:19:15.688Z,9.20
2019-06-18T00:21:51.407Z,9.50
2019-06-18T00:24:20.657Z,9.17
2019-06-18T00:26:55.700Z,10.50
2019-06-18T00:29:24.060Z,11.57
2019-06-18T00:31:52.409Z,11.70
2019-06-18T00:34:21.348Z,11.47
2019-06-18T00:37:05.894Z,11.77
2019-06-18T00:42:08.536Z,12.70
2019-06-18T00:44:58.485Z,12.67
2019-06-18T00:50:12.314Z,13.85
2019-06-18T00:52:40.667Z,12.53
2019-06-18T00:55:09.583Z,11.77
2019-06-18T00:57:38.628Z,12.37
2019-06-18T01:02:57.479Z,13.47
2019-06-18T01:08:03.640Z,12.77
2019-06-18T01:10:32.043Z,12.43
2019-06-18T01:13:00.574Z,11.47
2019-06-18T01:15:29.124Z,10.93
2019-06-18T01:18:00.763Z,13.48
2019-06-18T01:20:29.476Z,15.30
2019-06-18T01:25:32.597Z,12.40
2019-06-18T01:28:12.848Z,11.17
2019-06-18T01:30:39.026Z,12.03
2019-06-18T01:33:08.344Z,9.80
2019-06-18T01:35:36.725Z,10.93
2019-06-18T01:38:09.757Z,11.13
2019-06-18T01:40:39.030Z,11.40
2019-06-18T01:45:43.334Z,13.37
2019-06-18T01:48:32.595Z,12.50
2019-06-18T01:51:29.086Z,12.23
2019-06-18T01:56:32.612Z,12.87
2019-06-18T01:59:02.520Z,12.50
2019-06-18T02:01:32.372Z,13.73
2019-06-18T02:04:06.837Z,13.33
2019-06-18T02:06:35.205Z,13.37
2019-06-18T02:11:38.747Z,14.13
2019-06-18T02:14:23.386Z,13.90
2019-06-18T02:16:53.695Z,13.80
2019-06-18T02:19:22.671Z,13.10
2019-06-18T02:22:12.946Z,11.77
2019-06-18T02:24:38.853Z,12.43
2019-06-18T02:32:23.661Z,14.03
2019-06-18T02:34:53.642Z,12.97
2019-06-18T02:40:23.227Z,13.17
2019-06-18T02:45:29.510Z,14.48
2019-06-18T02:47:59.877Z,13.30
2019-06-18T02:50:32.579Z,14.20
2019-06-18T02:55:35.566Z,15.60
2019-06-18T02:58:17.062Z,14.03
2019-06-18T03:03:33.676Z,15.48
2019-06-18T03:06:03.035Z,14.70
2019-06-18T03:08:33.424Z,12.70
2019-06-18T03:11:02.954Z,12.47
2019-06-18T03:13:32.690Z,13.70
2019-06-18T03:16:12.986Z,13.70
2019-06-18T03:18:42.710Z,14.67
2019-06-18T03:23:44.570Z,16.43
2019-06-18T03:26:32.753Z,14.90
2019-06-18T03:29:02.886Z,17.10
2019-06-18T03:31:35.008Z,14.80
2019-06-18T03:36:36.873Z,14.80
2019-06-18T03:42:05.086Z,18.55
2019-06-18T03:44:38.757Z,16.00
2019-06-18T03:47:07.134Z,14.20
2019-06-18T03:49:45.263Z,15.53
2019-06-18T03:52:13.619Z,14.67
2019-06-18T03:54:42.852Z,14.13
2019-06-18T03:57:10.348Z,15.45
2019-06-18T03:59:38.711Z,17.60
2019-06-18T04:02:07.093Z,16.27
2019-06-18T04:04:47.595Z,15.93
2019-06-18T04:07:14.626Z,14.37
2019-06-18T04:09:49.940Z,14.90
2019-06-18T04:12:18.462Z,14.07
2019-06-18T04:15:05.137Z,13.93
2019-06-18T04:17:34.383Z,14.57
2019-06-18T04:20:06.511Z,15.20
2019-06-18T04:22:38.495Z,15.97
2019-06-18T04:25:06.860Z,16.00
2019-06-18T04:30:09.430Z,19.20
2019-06-18T04:35:22.550Z,20.27
2019-06-18T04:37:53.037Z,18.63
2019-06-18T04:40:18.780Z,17.37
2019-06-18T04:42:48.061Z,17.53
2019-06-18T04:47:53.670Z,18.63
2019-06-18T04:50:22.684Z,17.60
2019-06-18T04:53:06.768Z,17.50
2019-06-18T04:55:49.487Z,17.20
2019-06-18T04:58:17.857Z,17.83
2019-06-18T05:00:48.203Z,17.70
2019-06-18T05:03:16.581Z,20.10
2019-06-18T05:06:04.240Z,22.30
2019-06-18T05:11:12.961Z,24.77
2019-06-18T05:16:14.372Z,25.27
2019-06-18T05:18:53.439Z,25.70
2019-06-18T05:21:22.306Z,23.33
2019-06-18T05:24:06.370Z,21.87
2019-06-18T05:26:42.906Z,23.50
2019-06-18T05:29:09.104Z,19.30
2019-06-18T05:32:04.262Z,22.67
2019-06-18T05:34:42.429Z,21.77
2019-06-18T05:37:13.315Z,19.73
2019-06-18T05:42:14.049Z,22.17
2019-06-18T05:44:59.324Z,21.13
2019-06-18T05:47:27.688Z,19.67
2019-06-18T05:50:07.248Z,21.17
2019-06-18T05:53:05.828Z,21.17
2019-06-18T05:55:43.308Z,20.40
2019-06-18T05:58:09.636Z,17.90
2019-06-18T06:00:37.994Z,19.80
2019-06-18T06:03:06.354Z,18.50
2019-06-18T06:08:09.060Z,19.75
2019-06-18T06:10:42.802Z,19.40
2019-06-18T06:13:09.518Z,17.27
2019-06-18T06:18:13.091Z,18.05
2019-06-18T06:23:22.765Z,19.23
2019-06-18T06:28:25.097Z,16.60
2019-06-18T06:31:05.513Z,17.30
2019-06-18T06:36:08.165Z,19.70
2019-06-18T06:41:13.541Z,19.80
2019-06-18T06:43:44.552Z,18.75
2019-06-18T06:46:13.071Z,17.53
2019-06-18T06:48:58.388Z,15.30
2019-06-18T06:51:38.461Z,14.50
2019-06-18T06:54:15.187Z,16.83
2019-06-18T06:56:43.685Z,17.00
2019-06-18T06:59:13.385Z,15.10
2019-06-18T07:01:43.425Z,16.07
2019-06-18T07:06:44.909Z,16.87
2019-06-18T07:09:26.482Z,14.87
2019-06-18T07:11:54.845Z,13.00
2019-06-18T07:14:23.906Z,14.33
2019-06-18T07:16:53.062Z,15.43
2019-06-18T07:19:24.564Z,16.35
2019-06-18T07:21:53.836Z,14.97
2019-06-18T07:24:24.094Z,13.70
2019-06-18T07:26:53.959Z,17.60
2019-06-18T07:29:22.693Z,16.67
2019-06-18T07:31:49.199Z,16.80
2019-06-18T07:34:24.241Z,13.93
2019-06-18T07:36:52.938Z,14.30
2019-06-18T07:39:22.453Z,14.67
2019-06-18T07:41:57.921Z,15.00
2019-06-18T07:44:27.181Z,12.70
2019-06-18T07:49:32.928Z,16.00
2019-06-18T07:52:06.432Z,14.03
2019-06-18T07:54:35.014Z,13.80
2019-06-18T07:57:04.401Z,13.63
2019-06-18T07:59:32.964Z,12.40
2019-06-18T08:02:06.268Z,12.83
2019-06-18T08:04:36.266Z,13.10
2019-06-18T08:07:08.980Z,11.37
2019-06-18T08:09:37.349Z,11.20
2019-06-18T08:14:53.013Z,12.50
2019-06-18T08:17:23.585Z,11.83
2019-06-18T08:22:28.205Z,12.27
2019-06-18T08:24:57.555Z,11.10
2019-06-18T08:27:25.905Z,12.30
2019-06-18T08:30:28.400Z,11.53
2019-06-18T08:32:43.165Z,13.10
2019-06-18T08:46:32.716Z,10.80
2019-06-18T08:48:59.302Z,11.93
2019-06-18T08:51:27.656Z,11.37
2019-06-18T08:56:30.338Z,10.88
2019-06-18T08:58:58.688Z,10.37
2019-06-18T09:01:27.899Z,9.67
2019-06-18T09:03:55.412Z,9.37
2019-06-18T09:06:23.953Z,8.73
2019-06-18T09:08:53.708Z,9.00
2019-06-18T09:11:20.528Z,9.00
2019-06-18T09:13:48.897Z,8.73
2019-06-18T09:16:18.173Z,11.93
2019-06-18T09:21:22.615Z,8.75
2019-06-18T09:23:49.579Z,8.70
2019-06-18T09:26:17.946Z,7.77
2019-06-18T09:28:46.297Z,9.33
2019-06-18T09:31:14.641Z,8.87
2019-06-18T09:34:02.403Z,8.20
2019-06-18T09:39:07.426Z,8.63
2019-06-18T09:41:39.494Z,9.20
2019-06-18T09:44:07.836Z,7.47
2019-06-18T09:46:38.097Z,7.20
2019-06-18T09:49:07.369Z,8.50
2019-06-18T09:51:39.784Z,6.70
2019-06-18T09:54:08.171Z,6.15
2019-06-18T09:57:06.133Z,7.60
2019-06-18T10:02:08.813Z,7.00
2019-06-18T10:05:04.431Z,6.20
2019-06-18T10:10:07.140Z,7.53
2019-06-18T10:12:37.389Z,7.43
2019-06-18T10:17:43.199Z,7.50
2019-06-18T10:20:11.409Z,6.93
2019-06-18T10:25:14.126Z,7.68
2019-06-18T10:28:06.537Z,6.07
2019-06-18T10:30:49.741Z,6.70
2019-06-18T10:33:18.115Z,6.40
2019-06-18T10:36:06.366Z,7.40
2019-06-18T10:38:47.194Z,6.00
2019-06-18T10:41:18.480Z,7.30
2019-06-18T10:43:46.870Z,5.83
2019-06-18T10:46:25.788Z,5.80
2019-06-18T10:48:54.149Z,5.50
2019-06-18T10:51:23.710Z,6.17
2019-06-18T10:53:53.448Z,5.85
2019-06-18T10:59:22.553Z,5.40
2019-06-18T11:01:52.905Z,5.10
2019-06-18T11:04:23.497Z,5.53
2019-06-18T11:06:52.996Z,5.13
2019-06-18T11:09:23.317Z,5.40
2019-06-18T11:11:49.634Z,5.00
2019-06-18T11:14:23.150Z,5.60
2019-06-18T11:16:53.110Z,4.60
2019-06-18T11:19:23.781Z,4.73
2019-06-18T11:27:04.777Z,5.20
2019-06-18T11:29:46.929Z,4.90
2019-06-18T11:32:45.423Z,5.27
2019-06-18T11:37:53.470Z,5.45
2019-06-18T11:40:22.160Z,4.80
2019-06-18T11:42:52.479Z,5.30
2019-06-18T11:45:23.303Z,5.10
2019-06-18T11:47:53.366Z,5.50
2019-06-18T11:50:20.010Z,4.77
2019-06-18T11:52:49.360Z,5.60
2019-06-18T11:55:18.656Z,5.20
2019-06-18T11:57:47.001Z,5.50
2019-06-18T12:02:55.805Z,4.70
2019-06-18T12:05:45.872Z,4.60
2019-06-18T12:08:28.997Z,4.67
2019-06-18T12:11:01.485Z,4.17
2019-06-18T12:13:46.443Z,4.17
2019-06-18T12:18:48.989Z,4.82
2019-06-18T12:21:33.180Z,4.50
2019-06-18T12:24:03.716Z,4.20
2019-06-18T12:26:46.233Z,3.90
2019-06-18T12:29:45.150Z,4.87
2019-06-18T12:32:26.090Z,6.13
2019-06-18T12:34:54.443Z,4.10
2019-06-18T12:37:46.321Z,4.33
2019-06-18T12:40:42.928Z,3.83
2019-06-18T12:46:17.518Z,4.00
2019-06-18T12:48:45.858Z,4.03
2019-06-18T12:51:18.395Z,4.43
2019-06-18T12:54:02.384Z,3.83
2019-06-18T12:56:46.628Z,4.60
2019-06-18T12:59:35.594Z,4.43
2019-06-18T13:02:03.480Z,4.00
2019-06-18T13:04:33.557Z,4.43
2019-06-18T13:07:03.882Z,3.67
2019-06-18T13:09:34.804Z,3.80
2019-06-18T13:12:05.853Z,3.80
2019-06-18T13:14:44.882Z,3.30
2019-06-18T13:19:53.084Z,4.00
2019-06-18T13:22:45.944Z,5.00
2019-06-18T13:25:25.639Z,3.23
2019-06-18T13:27:56.713Z,3.53
2019-06-18T13:30:32.722Z,3.00
2019-06-18T13:33:03.981Z,3.27
2019-06-18T13:35:46.546Z,3.70
2019-06-18T13:38:43.690Z,3.27
2019-06-18T13:44:45.130Z,3.50
2019-06-18T13:47:13.672Z,2.50
2019-06-18T13:49:45.520Z,3.13
2019-06-18T13:52:13.876Z,2.97
2019-06-18T13:54:48.291Z,3.70
2019-06-18T13:57:18.793Z,3.10
2019-06-18T14:00:07.198Z,3.73
2019-06-18T14:02:54.674Z,3.00
2019-06-18T14:05:24.166Z,2.80
2019-06-18T14:07:57.768Z,2.90
2019-06-18T14:10:26.140Z,2.70
2019-06-18T14:12:55.093Z,3.07
2019-06-18T14:15:23.496Z,4.43
2019-06-18T14:20:46.430Z,3.30
2019-06-18T14:23:14.822Z,4.20
2019-06-18T14:26:08.780Z,3.10
2019-06-18T14:29:06.897Z,3.40
2019-06-18T14:32:05.812Z,3.43
2019-06-18T14:35:05.694Z,3.20
2019-06-18T14:42:52.730Z,3.20
2019-06-18T14:45:34.239Z,3.50
2019-06-18T14:47:59.506Z,3.67
2019-06-18T14:50:33.927Z,3.05
2019-06-18T14:53:03.547Z,4.72
2019-06-18T14:55:45.646Z,4.05
2019-06-18T14:58:41.824Z,3.57
2019-06-18T15:03:51.434Z,3.28
2019-06-18T15:06:44.789Z,4.20
2019-06-18T15:09:14.049Z,3.20
2019-06-18T15:11:43.392Z,3.20
2019-06-18T15:17:13.883Z,2.80
2019-06-18T15:22:26.081Z,3.10
2019-06-18T15:24:54.449Z,3.30
2019-06-18T15:27:44.568Z,2.87
2019-06-18T15:32:52.147Z,3.10
2019-06-18T15:35:44.434Z,3.23
2019-06-18T15:38:38.406Z,3.07
2019-06-18T15:41:06.757Z,4.20
2019-06-18T15:43:45.744Z,2.70
2019-06-18T15:46:35.805Z,3.90
2019-06-18T15:49:04.187Z,3.47
2019-06-18T15:51:45.077Z,3.90
2019-06-18T15:54:54.901Z,3.50
2019-06-18T15:57:07.495Z,3.43
2019-06-18T15:59:46.055Z,3.30
2019-06-18T16:02:32.866Z,3.80
2019-06-18T16:04:58.443Z,3.73
2019-06-18T16:07:45.786Z,3.90
2019-06-18T16:10:37.126Z,4.07
2019-06-18T16:16:13.282Z,4.10
2019-06-18T16:18:42.913Z,4.10
2019-06-18T16:21:29.697Z,4.60
2019-06-18T16:23:58.029Z,4.80
2019-06-18T16:26:44.291Z,6.33
2019-06-18T16:29:21.953Z,5.00
2019-06-18T16:31:47.816Z,8.00
2019-06-18T16:34:38.298Z,4.47
2019-06-18T16:42:49.336Z,5.07
2019-06-18T16:48:00.054Z,4.70
2019-06-18T16:50:43.574Z,5.33
2019-06-18T16:53:09.905Z,4.70
2019-06-18T16:55:45.230Z,4.90
2019-06-18T16:58:17.323Z,4.57
2019-06-18T17:03:45.418Z,5.07
2019-06-18T17:06:19.342Z,6.95
2019-06-18T17:08:48.619Z,8.50
2019-06-18T17:11:18.902Z,13.70
2019-06-18T17:13:49.313Z,13.77
2019-06-18T17:16:19.180Z,15.23
2019-06-18T17:18:48.434Z,11.17
2019-06-18T17:23:54.071Z,5.60
2019-06-18T17:26:40.501Z,4.90
2019-06-18T17:28:53.862Z,6.40
2019-06-18T17:31:28.156Z,5.32
2019-06-18T17:33:56.530Z,5.53
2019-06-18T17:36:45.140Z,5.37
2019-06-18T17:39:14.157Z,6.30
2019-06-18T17:41:52.928Z,5.03
2019-06-18T17:44:22.161Z,5.27
2019-06-18T17:49:26.890Z,6.12
2019-06-18T17:52:10.148Z,7.43
2019-06-18T17:54:43.644Z,6.22
2019-06-18T17:57:17.444Z,5.57
2019-06-18T17:59:45.822Z,5.27
2019-06-18T18:05:12.994Z,5.45
2019-06-18T18:08:09.216Z,6.87
2019-06-18T18:10:44.158Z,6.27
2019-06-18T18:13:12.872Z,6.67
2019-06-18T18:16:07.631Z,8.73
2019-06-18T18:18:41.756Z,6.60
2019-06-18T18:24:12.382Z,7.12
2019-06-18T18:26:43.209Z,10.10
2019-06-18T18:32:12.854Z,7.80
2019-06-18T18:34:53.442Z,10.37
2019-06-18T18:37:34.039Z,7.40
2019-06-18T18:40:02.923Z,7.80
2019-06-18T18:45:25.359Z,10.00
2019-06-18T18:47:57.245Z,10.40
2019-06-18T18:50:27.374Z,10.23
2019-06-18T18:52:55.787Z,9.10
2019-06-18T18:58:27.067Z,8.80
2019-06-18T19:01:03.302Z,9.83
2019-06-18T19:03:34.590Z,12.43
2019-06-18T19:06:03.801Z,9.40
2019-06-18T19:11:17.807Z,8.93
2019-06-18T19:13:46.160Z,7.63
2019-06-18T19:16:14.692Z,7.53
2019-06-18T19:18:46.185Z,8.07
2019-06-18T19:21:18.785Z,7.73
2019-06-18T19:23:52.821Z,8.03
2019-06-18T19:26:52.558Z,7.93
2019-06-18T19:31:58.379Z,8.27
2019-06-18T19:37:04.142Z,8.65
2019-06-18T19:42:44.632Z,8.60
2019-06-18T19:45:16.420Z,8.40
2019-06-18T19:47:45.706Z,8.90
2019-06-18T19:50:14.074Z,8.20
2019-06-18T19:52:45.953Z,8.38
2019-06-18T19:55:14.376Z,8.10
2019-06-18T20:00:17.053Z,8.40
2019-06-18T20:02:45.428Z,9.13
2019-06-18T20:07:52.607Z,7.35
2019-06-18T20:10:22.580Z,12.03
2019-06-18T20:12:50.309Z,8.97
2019-06-18T20:15:19.576Z,10.10
2019-06-18T20:17:47.961Z,7.93
2019-06-18T20:20:22.609Z,9.60
2019-06-18T20:22:49.789Z,8.60
2019-06-18T20:25:21.258Z,8.40
2019-06-18T20:27:57.707Z,8.40
2019-06-18T20:30:26.059Z,8.20
2019-06-18T20:33:02.981Z,11.20
2019-06-18T20:35:33.343Z,11.30
2019-06-18T20:38:05.177Z,9.60
2019-06-18T20:40:51.710Z,10.10
2019-06-18T20:43:20.070Z,11.80
2019-06-18T20:45:48.442Z,9.83
2019-06-18T20:48:16.807Z,10.17
2019-06-18T20:50:55.592Z,10.70
2019-06-18T20:53:24.112Z,10.80
2019-06-18T20:55:59.397Z,10.07
2019-06-18T20:58:28.941Z,10.20
2019-06-18T21:00:57.284Z,10.00
2019-06-18T21:03:25.638Z,10.73
2019-06-18T21:05:56.114Z,9.70
2019-06-18T21:08:24.482Z,9.63
2019-06-18T21:13:27.177Z,10.77
2019-06-18T21:18:32.447Z,10.40
2019-06-18T21:20:59.125Z,10.23
2019-06-18T21:23:27.492Z,10.10
2019-06-18T21:26:06.574Z,9.03
2019-06-18T21:28:47.528Z,9.13
2019-06-18T21:31:15.910Z,9.50
2019-06-18T21:33:53.104Z,9.03
2019-06-18T21:36:22.601Z,8.77
2019-06-18T21:38:54.188Z,8.80
2019-06-18T21:41:22.698Z,7.17
2019-06-18T21:46:30.045Z,7.17
2019-06-18T21:51:42.331Z,5.60
2019-06-18T21:54:12.426Z,6.20
2019-06-18T21:59:15.925Z,5.00
2019-06-18T22:04:20.561Z,4.20
2019-06-18T22:06:52.290Z,4.27
2019-06-18T22:09:25.017Z,4.20
2019-06-18T22:14:27.653Z,3.70
2019-06-18T22:19:55.489Z,3.40
2019-06-18T22:25:03.197Z,3.37
2019-06-18T22:27:39.680Z,3.67
2019-06-18T22:30:08.052Z,3.13
2019-06-18T22:35:14.694Z,3.20
2019-06-18T22:42:58.667Z,3.43
2019-06-18T22:45:32.685Z,3.27
2019-06-18T22:47:58.871Z,3.73
2019-06-18T22:53:05.512Z,3.03
2019-06-18T22:58:18.914Z,3.10
2019-06-18T23:00:48.184Z,4.43
2019-06-18T23:03:22.425Z,3.03
2019-06-18T23:05:50.047Z,3.00
2019-06-18T23:10:56.706Z,3.90
2019-06-18T23:13:25.973Z,2.53
2019-06-18T23:15:58.167Z,3.57
2019-06-18T23:21:13.774Z,2.57
2019-06-18T23:26:18.350Z,2.60
2019-06-18T23:34:13.360Z,2.57
2019-06-18T23:36:56.425Z,2.70
2019-06-18T23:39:26.685Z,2.17
2019-06-18T23:41:55.044Z,2.40
2019-06-18T23:44:23.400Z,2.00
2019-06-18T23:46:56.377Z,2.30
2019-06-18T23:49:35.105Z,2.30
2019-06-18T23:52:16.004Z,2.73
2019-06-18T23:54:44.356Z,2.50
2019-06-18T23:57:14.691Z,2.40
2019-06-18T23:59:43.047Z,2.57
